sensor_id;sensor_type;location;lat;lon;timestamp;P1;durP1;ratioP1;P2;durP2;ratioP2
7571;SDS011;3827;49.928;8.548;2023-05-01T00:00:13;0.40;;;0.40;;
7571;SDS011;3827;49.928;8.548;2023-05-01T00:02:40;0.40;;;0.40;;
7571;SDS011;3827;49.928;8.548;2023-05-01T00:05:08;0.32;;;0.32;;
7571;SDS011;3827;49.928;8.548;2023-05-01T00:07:35;0.30;;;0.30;;
7571;SDS011;3827;49.928;8.548;2023-05-01T00:10:02;0.40;;;0.40;;
7571;SDS011;3827;49.928;8.548;2023-05-01T00:12:29;0.30;;;0.30;;
7571;SDS011;3827;49.928;8.548;2023-05-01T00:14:56;0.30;;;0.30;;
7571;SDS011;3827;49.928;8.548;2023-05-01T00:17:23;0.30;;;0.30;;
7571;SDS011;3827;49.928;8.548;2023-05-01T00:19:51;0.30;;;0.30;;
7571;SDS011;3827;49.928;8.548;2023-05-01T00:22:19;0.30;;;0.30;;
7571;SDS011;3827;49.928;8.548;2023-05-01T00:24:46;0.20;;;0.20;;
7571;SDS011;3827;49.928;8.548;2023-05-01T00:27:14;0.35;;;0.35;;
7571;SDS011;3827;49.928;8.548;2023-05-01T00:29:41;0.30;;;0.30;;
7571;SDS011;3827;49.928;8.548;2023-05-01T00:32:07;0.30;;;0.30;;
7571;SDS011;3827;49.928;8.548;2023-05-01T00:34:34;0.40;;;0.40;;
7571;SDS011;3827;49.928;8.548;2023-05-01T00:37:01;0.32;;;0.32;;
7571;SDS011;3827;49.928;8.548;2023-05-01T00:39:29;0.30;;;0.30;;
7571;SDS011;3827;49.928;8.548;2023-05-01T00:41:56;0.40;;;0.40;;
7571;SDS011;3827;49.928;8.548;2023-05-01T00:44:23;0.30;;;0.30;;
7571;SDS011;3827;49.928;8.548;2023-05-01T00:46:50;0.40;;;0.40;;
7571;SDS011;3827;49.928;8.548;2023-05-01T00:49:17;0.20;;;0.20;;
7571;SDS011;3827;49.928;8.548;2023-05-01T00:51:44;0.30;;;0.30;;
7571;SDS011;3827;49.928;8.548;2023-05-01T00:54:14;0.40;;;0.40;;
7571;SDS011;3827;49.928;8.548;2023-05-01T00:56:43;0.30;;;0.30;;
7571;SDS011;3827;49.928;8.548;2023-05-01T00:59:10;0.45;;;0.38;;
7571;SDS011;3827;49.928;8.548;2023-05-01T01:01:37;0.35;;;0.35;;
7571;SDS011;3827;49.928;8.548;2023-05-01T01:04:06;0.40;;;0.40;;
7571;SDS011;3827;49.928;8.548;2023-05-01T01:06:35;0.30;;;0.30;;
7571;SDS011;3827;49.928;8.548;2023-05-01T01:09:15;0.50;;;0.50;;
7571;SDS011;3827;49.928;8.548;2023-05-01T01:11:52;0.20;;;0.20;;
7571;SDS011;3827;49.928;8.548;2023-05-01T01:14:26;0.40;;;0.40;;
7571;SDS011;3827;49.928;8.548;2023-05-01T01:17:03;0.40;;;0.40;;
7571;SDS011;3827;49.928;8.548;2023-05-01T01:20:01;0.40;;;0.40;;
7571;SDS011;3827;49.928;8.548;2023-05-01T01:22:40;0.40;;;0.40;;
7571;SDS011;3827;49.928;8.548;2023-05-01T01:25:22;0.30;;;0.30;;
7571;SDS011;3827;49.928;8.548;2023-05-01T01:30:53;0.40;;;0.40;;
7571;SDS011;3827;49.928;8.548;2023-05-01T01:39:26;0.30;;;0.30;;
7571;SDS011;3827;49.928;8.548;2023-05-01T01:41:56;0.30;;;0.30;;
7571;SDS011;3827;49.928;8.548;2023-05-01T01:44:27;0.50;;;0.50;;
7571;SDS011;3827;49.928;8.548;2023-05-01T01:46:58;0.40;;;0.40;;
7571;SDS011;3827;49.928;8.548;2023-05-01T01:49:31;0.47;;;0.47;;
7571;SDS011;3827;49.928;8.548;2023-05-01T01:52:00;0.28;;;0.28;;
7571;SDS011;3827;49.928;8.548;2023-05-01T01:54:29;0.40;;;0.40;;
7571;SDS011;3827;49.928;8.548;2023-05-01T01:57:00;0.30;;;0.30;;
7571;SDS011;3827;49.928;8.548;2023-05-01T01:59:29;0.30;;;0.30;;
7571;SDS011;3827;49.928;8.548;2023-05-01T02:01:58;0.50;;;0.50;;
7571;SDS011;3827;49.928;8.548;2023-05-01T02:04:27;0.52;;;0.52;;
7571;SDS011;3827;49.928;8.548;2023-05-01T02:06:58;0.32;;;0.32;;
7571;SDS011;3827;49.928;8.548;2023-05-01T02:09:27;0.55;;;0.55;;
7571;SDS011;3827;49.928;8.548;2023-05-01T02:11:55;0.40;;;0.40;;
7571;SDS011;3827;49.928;8.548;2023-05-01T02:14:24;0.43;;;0.43;;
7571;SDS011;3827;49.928;8.548;2023-05-01T02:16:52;0.40;;;0.40;;
7571;SDS011;3827;49.928;8.548;2023-05-01T02:19:20;0.55;;;0.55;;
7571;SDS011;3827;49.928;8.548;2023-05-01T02:21:49;0.40;;;0.40;;
7571;SDS011;3827;49.928;8.548;2023-05-01T02:24:19;0.30;;;0.30;;
7571;SDS011;3827;49.928;8.548;2023-05-01T02:26:48;0.43;;;0.43;;
7571;SDS011;3827;49.928;8.548;2023-05-01T02:29:19;0.40;;;0.40;;
7571;SDS011;3827;49.928;8.548;2023-05-01T02:31:46;0.40;;;0.40;;
7571;SDS011;3827;49.928;8.548;2023-05-01T02:34:13;0.40;;;0.40;;
7571;SDS011;3827;49.928;8.548;2023-05-01T02:36:40;0.40;;;0.40;;
7571;SDS011;3827;49.928;8.548;2023-05-01T02:39:09;0.33;;;0.33;;
7571;SDS011;3827;49.928;8.548;2023-05-01T02:41:36;0.40;;;0.40;;
7571;SDS011;3827;49.928;8.548;2023-05-01T02:44:04;0.52;;;0.52;;
7571;SDS011;3827;49.928;8.548;2023-05-01T02:46:34;0.38;;;0.38;;
7571;SDS011;3827;49.928;8.548;2023-05-01T02:49:02;0.40;;;0.40;;
7571;SDS011;3827;49.928;8.548;2023-05-01T02:51:31;0.45;;;0.45;;
7571;SDS011;3827;49.928;8.548;2023-05-01T02:53:59;0.50;;;0.50;;
7571;SDS011;3827;49.928;8.548;2023-05-01T02:56:28;1.63;;;0.95;;
7571;SDS011;3827;49.928;8.548;2023-05-01T02:58:55;0.40;;;0.40;;
7571;SDS011;3827;49.928;8.548;2023-05-01T03:01:22;0.40;;;0.40;;
7571;SDS011;3827;49.928;8.548;2023-05-01T03:03:49;0.50;;;0.50;;
7571;SDS011;3827;49.928;8.548;2023-05-01T03:06:16;0.30;;;0.30;;
7571;SDS011;3827;49.928;8.548;2023-05-01T03:08:44;0.40;;;0.40;;
7571;SDS011;3827;49.928;8.548;2023-05-01T03:11:11;0.50;;;0.50;;
7571;SDS011;3827;49.928;8.548;2023-05-01T03:13:40;0.40;;;0.40;;
7571;SDS011;3827;49.928;8.548;2023-05-01T03:16:07;0.30;;;0.30;;
7571;SDS011;3827;49.928;8.548;2023-05-01T03:18:34;0.70;;;0.63;;
7571;SDS011;3827;49.928;8.548;2023-05-01T03:21:01;0.98;;;0.57;;
7571;SDS011;3827;49.928;8.548;2023-05-01T03:23:27;0.40;;;0.40;;
7571;SDS011;3827;49.928;8.548;2023-05-01T03:25:54;0.40;;;0.40;;
7571;SDS011;3827;49.928;8.548;2023-05-01T03:28:21;0.50;;;0.50;;
7571;SDS011;3827;49.928;8.548;2023-05-01T03:30:50;0.50;;;0.50;;
7571;SDS011;3827;49.928;8.548;2023-05-01T03:33:17;0.40;;;0.40;;
7571;SDS011;3827;49.928;8.548;2023-05-01T03:35:44;0.47;;;0.47;;
7571;SDS011;3827;49.928;8.548;2023-05-01T03:38:10;0.40;;;0.40;;
7571;SDS011;3827;49.928;8.548;2023-05-01T03:40:37;0.30;;;0.30;;
7571;SDS011;3827;49.928;8.548;2023-05-01T03:43:04;0.60;;;0.60;;
7571;SDS011;3827;49.928;8.548;2023-05-01T03:45:31;0.30;;;0.30;;
7571;SDS011;3827;49.928;8.548;2023-05-01T03:47:59;0.40;;;0.40;;
7571;SDS011;3827;49.928;8.548;2023-05-01T03:50:26;0.77;;;0.77;;
7571;SDS011;3827;49.928;8.548;2023-05-01T03:52:52;0.40;;;0.40;;
7571;SDS011;3827;49.928;8.548;2023-05-01T03:55:19;0.45;;;0.45;;
7571;SDS011;3827;49.928;8.548;2023-05-01T03:57:46;1.63;;;0.80;;
7571;SDS011;3827;49.928;8.548;2023-05-01T04:00:13;0.40;;;0.40;;
7571;SDS011;3827;49.928;8.548;2023-05-01T04:02:40;0.80;;;0.60;;
7571;SDS011;3827;49.928;8.548;2023-05-01T04:05:08;0.57;;;0.50;;
7571;SDS011;3827;49.928;8.548;2023-05-01T04:07:35;0.50;;;0.50;;
7571;SDS011;3827;49.928;8.548;2023-05-01T04:10:01;0.50;;;0.50;;
7571;SDS011;3827;49.928;8.548;2023-05-01T04:12:28;0.68;;;0.68;;
7571;SDS011;3827;49.928;8.548;2023-05-01T04:14:55;0.60;;;0.60;;
7571;SDS011;3827;49.928;8.548;2023-05-01T04:17:22;0.50;;;0.50;;
7571;SDS011;3827;49.928;8.548;2023-05-01T04:19:49;0.40;;;0.40;;
7571;SDS011;3827;49.928;8.548;2023-05-01T04:22:17;0.60;;;0.60;;
7571;SDS011;3827;49.928;8.548;2023-05-01T04:24:44;0.50;;;0.50;;
7571;SDS011;3827;49.928;8.548;2023-05-01T04:27:11;0.80;;;0.40;;
7571;SDS011;3827;49.928;8.548;2023-05-01T04:29:38;0.73;;;0.73;;
7571;SDS011;3827;49.928;8.548;2023-05-01T04:32:05;0.55;;;0.55;;
7571;SDS011;3827;49.928;8.548;2023-05-01T04:34:32;0.43;;;0.43;;
7571;SDS011;3827;49.928;8.548;2023-05-01T04:36:59;0.50;;;0.50;;
7571;SDS011;3827;49.928;8.548;2023-05-01T04:39:28;0.45;;;0.45;;
7571;SDS011;3827;49.928;8.548;2023-05-01T04:41:55;0.50;;;0.50;;
7571;SDS011;3827;49.928;8.548;2023-05-01T04:44:22;0.60;;;0.60;;
7571;SDS011;3827;49.928;8.548;2023-05-01T04:46:49;0.55;;;0.55;;
7571;SDS011;3827;49.928;8.548;2023-05-01T04:49:16;0.80;;;0.60;;
7571;SDS011;3827;49.928;8.548;2023-05-01T04:51:42;0.43;;;0.43;;
7571;SDS011;3827;49.928;8.548;2023-05-01T04:54:09;0.60;;;0.60;;
7571;SDS011;3827;49.928;8.548;2023-05-01T04:56:38;0.40;;;0.40;;
7571;SDS011;3827;49.928;8.548;2023-05-01T04:59:04;0.40;;;0.40;;
7571;SDS011;3827;49.928;8.548;2023-05-01T05:01:31;0.40;;;0.40;;
7571;SDS011;3827;49.928;8.548;2023-05-01T05:03:58;0.50;;;0.50;;
7571;SDS011;3827;49.928;8.548;2023-05-01T05:06:25;0.50;;;0.50;;
7571;SDS011;3827;49.928;8.548;2023-05-01T05:08:52;0.52;;;0.52;;
7571;SDS011;3827;49.928;8.548;2023-05-01T05:11:21;0.57;;;0.57;;
7571;SDS011;3827;49.928;8.548;2023-05-01T05:13:49;0.50;;;0.50;;
7571;SDS011;3827;49.928;8.548;2023-05-01T05:16:16;0.63;;;0.63;;
7571;SDS011;3827;49.928;8.548;2023-05-01T05:18:43;0.40;;;0.40;;
7571;SDS011;3827;49.928;8.548;2023-05-01T05:21:09;0.50;;;0.50;;
7571;SDS011;3827;49.928;8.548;2023-05-01T05:23:36;0.50;;;0.50;;
7571;SDS011;3827;49.928;8.548;2023-05-01T05:26:03;0.52;;;0.52;;
7571;SDS011;3827;49.928;8.548;2023-05-01T05:28:30;0.60;;;0.57;;
7571;SDS011;3827;49.928;8.548;2023-05-01T05:30:58;0.47;;;0.47;;
7571;SDS011;3827;49.928;8.548;2023-05-01T05:33:25;0.40;;;0.40;;
7571;SDS011;3827;49.928;8.548;2023-05-01T05:35:56;0.40;;;0.40;;
7571;SDS011;3827;49.928;8.548;2023-05-01T05:38:23;0.60;;;0.60;;
7571;SDS011;3827;49.928;8.548;2023-05-01T05:40:50;0.80;;;0.40;;
7571;SDS011;3827;49.928;8.548;2023-05-01T05:43:19;0.38;;;0.38;;
7571;SDS011;3827;49.928;8.548;2023-05-01T05:45:46;0.50;;;0.50;;
7571;SDS011;3827;49.928;8.548;2023-05-01T05:48:14;0.70;;;0.40;;
7571;SDS011;3827;49.928;8.548;2023-05-01T05:50:41;0.47;;;0.47;;
7571;SDS011;3827;49.928;8.548;2023-05-01T05:53:07;0.70;;;0.40;;
7571;SDS011;3827;49.928;8.548;2023-05-01T05:55:35;0.43;;;0.43;;
7571;SDS011;3827;49.928;8.548;2023-05-01T05:58:02;0.40;;;0.40;;
7571;SDS011;3827;49.928;8.548;2023-05-01T06:00:29;0.60;;;0.60;;
7571;SDS011;3827;49.928;8.548;2023-05-01T06:02:56;0.50;;;0.50;;
7571;SDS011;3827;49.928;8.548;2023-05-01T06:05:24;0.50;;;0.50;;
7571;SDS011;3827;49.928;8.548;2023-05-01T06:07:51;0.50;;;0.50;;
7571;SDS011;3827;49.928;8.548;2023-05-01T06:10:18;0.35;;;0.35;;
7571;SDS011;3827;49.928;8.548;2023-05-01T06:12:45;0.40;;;0.40;;
7571;SDS011;3827;49.928;8.548;2023-05-01T06:15:12;0.40;;;0.40;;
7571;SDS011;3827;49.928;8.548;2023-05-01T06:17:41;0.50;;;0.50;;
7571;SDS011;3827;49.928;8.548;2023-05-01T06:20:08;0.70;;;0.60;;
7571;SDS011;3827;49.928;8.548;2023-05-01T06:22:37;0.80;;;0.70;;
7571;SDS011;3827;49.928;8.548;2023-05-01T06:25:04;0.70;;;0.70;;
7571;SDS011;3827;49.928;8.548;2023-05-01T06:27:31;0.40;;;0.40;;
7571;SDS011;3827;49.928;8.548;2023-05-01T06:29:58;0.38;;;0.38;;
7571;SDS011;3827;49.928;8.548;2023-05-01T06:32:25;0.40;;;0.40;;
7571;SDS011;3827;49.928;8.548;2023-05-01T06:34:52;0.40;;;0.40;;
7571;SDS011;3827;49.928;8.548;2023-05-01T06:37:19;0.63;;;0.63;;
7571;SDS011;3827;49.928;8.548;2023-05-01T06:39:47;0.60;;;0.60;;
7571;SDS011;3827;49.928;8.548;2023-05-01T06:42:14;0.40;;;0.40;;
7571;SDS011;3827;49.928;8.548;2023-05-01T06:44:41;0.57;;;0.57;;
7571;SDS011;3827;49.928;8.548;2023-05-01T06:47:08;0.65;;;0.65;;
7571;SDS011;3827;49.928;8.548;2023-05-01T06:49:35;0.60;;;0.60;;
7571;SDS011;3827;49.928;8.548;2023-05-01T06:52:02;0.47;;;0.47;;
7571;SDS011;3827;49.928;8.548;2023-05-01T06:54:29;1.02;;;0.50;;
7571;SDS011;3827;49.928;8.548;2023-05-01T06:56:57;0.50;;;0.50;;
7571;SDS011;3827;49.928;8.548;2023-05-01T06:59:24;0.50;;;0.50;;
7571;SDS011;3827;49.928;8.548;2023-05-01T07:01:51;0.43;;;0.43;;
7571;SDS011;3827;49.928;8.548;2023-05-01T07:04:18;0.40;;;0.40;;
7571;SDS011;3827;49.928;8.548;2023-05-01T07:06:45;0.73;;;0.73;;
7571;SDS011;3827;49.928;8.548;2023-05-01T07:09:11;0.55;;;0.55;;
7571;SDS011;3827;49.928;8.548;2023-05-01T07:11:38;0.32;;;0.32;;
7571;SDS011;3827;49.928;8.548;2023-05-01T07:14:07;0.60;;;0.60;;
7571;SDS011;3827;49.928;8.548;2023-05-01T07:16:34;0.43;;;0.43;;
7571;SDS011;3827;49.928;8.548;2023-05-01T07:19:01;0.50;;;0.50;;
7571;SDS011;3827;49.928;8.548;2023-05-01T07:21:28;0.50;;;0.50;;
7571;SDS011;3827;49.928;8.548;2023-05-01T07:23:56;0.40;;;0.40;;
7571;SDS011;3827;49.928;8.548;2023-05-01T07:26:23;0.57;;;0.57;;
7571;SDS011;3827;49.928;8.548;2023-05-01T07:28:51;0.60;;;0.60;;
7571;SDS011;3827;49.928;8.548;2023-05-01T07:31:19;0.47;;;0.47;;
7571;SDS011;3827;49.928;8.548;2023-05-01T07:33:46;0.50;;;0.50;;
7571;SDS011;3827;49.928;8.548;2023-05-01T07:36:13;0.50;;;0.50;;
7571;SDS011;3827;49.928;8.548;2023-05-01T07:38:42;0.50;;;0.50;;
7571;SDS011;3827;49.928;8.548;2023-05-01T07:41:10;0.50;;;0.50;;
7571;SDS011;3827;49.928;8.548;2023-05-01T07:43:36;0.30;;;0.30;;
7571;SDS011;3827;49.928;8.548;2023-05-01T07:46:03;0.40;;;0.40;;
7571;SDS011;3827;49.928;8.548;2023-05-01T07:48:32;0.40;;;0.40;;
7571;SDS011;3827;49.928;8.548;2023-05-01T07:51:00;0.40;;;0.40;;
7571;SDS011;3827;49.928;8.548;2023-05-01T07:53:27;0.47;;;0.47;;
7571;SDS011;3827;49.928;8.548;2023-05-01T07:56:02;0.40;;;0.40;;
7571;SDS011;3827;49.928;8.548;2023-05-01T07:58:30;0.38;;;0.38;;
7571;SDS011;3827;49.928;8.548;2023-05-01T08:00:57;0.45;;;0.45;;
7571;SDS011;3827;49.928;8.548;2023-05-01T08:03:23;0.40;;;0.40;;
7571;SDS011;3827;49.928;8.548;2023-05-01T08:05:53;0.50;;;0.50;;
7571;SDS011;3827;49.928;8.548;2023-05-01T08:08:20;0.40;;;0.40;;
7571;SDS011;3827;49.928;8.548;2023-05-01T08:10:47;0.57;;;0.40;;
7571;SDS011;3827;49.928;8.548;2023-05-01T08:13:14;0.47;;;0.47;;
7571;SDS011;3827;49.928;8.548;2023-05-01T08:15:41;0.40;;;0.40;;
7571;SDS011;3827;49.928;8.548;2023-05-01T08:18:08;0.35;;;0.35;;
7571;SDS011;3827;49.928;8.548;2023-05-01T08:20:34;0.30;;;0.30;;
7571;SDS011;3827;49.928;8.548;2023-05-01T08:23:03;0.40;;;0.40;;
7571;SDS011;3827;49.928;8.548;2023-05-01T08:25:29;0.38;;;0.38;;
7571;SDS011;3827;49.928;8.548;2023-05-01T08:27:56;0.32;;;0.32;;
7571;SDS011;3827;49.928;8.548;2023-05-01T08:30:23;0.30;;;0.30;;
7571;SDS011;3827;49.928;8.548;2023-05-01T08:32:50;0.30;;;0.30;;
7571;SDS011;3827;49.928;8.548;2023-05-01T08:35:17;0.43;;;0.43;;
7571;SDS011;3827;49.928;8.548;2023-05-01T08:37:44;0.50;;;0.50;;
7571;SDS011;3827;49.928;8.548;2023-05-01T08:40:13;0.40;;;0.40;;
7571;SDS011;3827;49.928;8.548;2023-05-01T08:42:40;0.30;;;0.30;;
7571;SDS011;3827;49.928;8.548;2023-05-01T08:45:08;0.30;;;0.30;;
7571;SDS011;3827;49.928;8.548;2023-05-01T08:47:36;0.45;;;0.45;;
7571;SDS011;3827;49.928;8.548;2023-05-01T08:50:04;0.25;;;0.25;;
7571;SDS011;3827;49.928;8.548;2023-05-01T08:52:36;0.30;;;0.30;;
7571;SDS011;3827;49.928;8.548;2023-05-01T08:55:07;0.20;;;0.20;;
7571;SDS011;3827;49.928;8.548;2023-05-01T08:57:38;0.30;;;0.30;;
7571;SDS011;3827;49.928;8.548;2023-05-01T09:00:09;0.20;;;0.20;;
7571;SDS011;3827;49.928;8.548;2023-05-01T09:02:43;0.20;;;0.20;;
7571;SDS011;3827;49.928;8.548;2023-05-01T09:05:12;0.20;;;0.20;;
7571;SDS011;3827;49.928;8.548;2023-05-01T09:07:41;0.10;;;0.10;;
7571;SDS011;3827;49.928;8.548;2023-05-01T09:10:08;0.10;;;0.10;;
7571;SDS011;3827;49.928;8.548;2023-05-01T09:12:37;0.20;;;0.20;;
7571;SDS011;3827;49.928;8.548;2023-05-01T09:15:05;0.10;;;0.10;;
7571;SDS011;3827;49.928;8.548;2023-05-01T09:17:33;0.10;;;0.10;;
7571;SDS011;3827;49.928;8.548;2023-05-01T09:20:01;0.10;;;0.10;;
7571;SDS011;3827;49.928;8.548;2023-05-01T09:22:30;0.20;;;0.20;;
7571;SDS011;3827;49.928;8.548;2023-05-01T09:24:58;0.20;;;0.20;;
7571;SDS011;3827;49.928;8.548;2023-05-01T09:27:25;0.30;;;0.30;;
7571;SDS011;3827;49.928;8.548;2023-05-01T09:29:53;0.20;;;0.20;;
7571;SDS011;3827;49.928;8.548;2023-05-01T09:32:21;0.20;;;0.20;;
7571;SDS011;3827;49.928;8.548;2023-05-01T09:34:51;0.15;;;0.15;;
7571;SDS011;3827;49.928;8.548;2023-05-01T09:37:25;0.15;;;0.10;;
7571;SDS011;3827;49.928;8.548;2023-05-01T09:40:00;0.10;;;0.10;;
7571;SDS011;3827;49.928;8.548;2023-05-01T09:42:32;0.10;;;0.10;;
7571;SDS011;3827;49.928;8.548;2023-05-01T09:45:04;0.10;;;0.10;;
7571;SDS011;3827;49.928;8.548;2023-05-01T09:47:32;0.20;;;0.20;;
7571;SDS011;3827;49.928;8.548;2023-05-01T09:50:00;0.13;;;0.13;;
7571;SDS011;3827;49.928;8.548;2023-05-01T09:52:27;0.20;;;0.20;;
7571;SDS011;3827;49.928;8.548;2023-05-01T09:55:10;0.10;;;0.10;;
7571;SDS011;3827;49.928;8.548;2023-05-01T09:57:38;0.10;;;0.10;;
7571;SDS011;3827;49.928;8.548;2023-05-01T10:00:11;0.10;;;0.10;;
7571;SDS011;3827;49.928;8.548;2023-05-01T10:02:39;0.10;;;0.10;;
7571;SDS011;3827;49.928;8.548;2023-05-01T10:05:10;0.10;;;0.10;;
7571;SDS011;3827;49.928;8.548;2023-05-01T10:07:37;0.25;;;0.25;;
7571;SDS011;3827;49.928;8.548;2023-05-01T10:10:16;0.20;;;0.20;;
7571;SDS011;3827;49.928;8.548;2023-05-01T10:12:43;0.17;;;0.17;;
7571;SDS011;3827;49.928;8.548;2023-05-01T10:15:12;0.20;;;0.20;;
7571;SDS011;3827;49.928;8.548;2023-05-01T10:17:39;0.35;;;0.30;;
7571;SDS011;3827;49.928;8.548;2023-05-01T10:20:08;0.10;;;0.10;;
7571;SDS011;3827;49.928;8.548;2023-05-01T10:22:36;0.40;;;0.20;;
7571;SDS011;3827;49.928;8.548;2023-05-01T10:25:06;0.30;;;0.30;;
7571;SDS011;3827;49.928;8.548;2023-05-01T10:27:35;0.30;;;0.30;;
7571;SDS011;3827;49.928;8.548;2023-05-01T10:30:04;0.10;;;0.10;;
7571;SDS011;3827;49.928;8.548;2023-05-01T10:32:34;0.30;;;0.30;;
7571;SDS011;3827;49.928;8.548;2023-05-01T10:35:03;0.10;;;0.10;;
7571;SDS011;3827;49.928;8.548;2023-05-01T10:37:34;0.10;;;0.10;;
7571;SDS011;3827;49.928;8.548;2023-05-01T10:43:11;0.10;;;0.10;;
7571;SDS011;3827;49.928;8.548;2023-05-01T10:45:39;0.10;;;0.10;;
7571;SDS011;3827;49.928;8.548;2023-05-01T10:48:08;0.17;;;0.17;;
7571;SDS011;3827;49.928;8.548;2023-05-01T10:50:35;0.20;;;0.20;;
7571;SDS011;3827;49.928;8.548;2023-05-01T10:53:35;0.10;;;0.10;;
7571;SDS011;3827;49.928;8.548;2023-05-01T10:56:02;0.22;;;0.22;;
7571;SDS011;3827;49.928;8.548;2023-05-01T11:01:32;0.20;;;0.20;;
7571;SDS011;3827;49.928;8.548;2023-05-01T11:04:02;0.20;;;0.20;;
7571;SDS011;3827;49.928;8.548;2023-05-01T11:06:32;0.10;;;0.10;;
7571;SDS011;3827;49.928;8.548;2023-05-01T11:09:00;0.30;;;0.30;;
7571;SDS011;3827;49.928;8.548;2023-05-01T11:11:47;0.10;;;0.10;;
7571;SDS011;3827;49.928;8.548;2023-05-01T11:14:17;0.20;;;0.20;;
7571;SDS011;3827;49.928;8.548;2023-05-01T11:16:44;0.20;;;0.20;;
7571;SDS011;3827;49.928;8.548;2023-05-01T11:22:14;0.20;;;0.20;;
7571;SDS011;3827;49.928;8.548;2023-05-01T11:24:42;0.17;;;0.17;;
7571;SDS011;3827;49.928;8.548;2023-05-01T11:27:12;0.20;;;0.20;;
7571;SDS011;3827;49.928;8.548;2023-05-01T11:29:41;0.30;;;0.30;;
7571;SDS011;3827;49.928;8.548;2023-05-01T11:32:14;0.20;;;0.20;;
7571;SDS011;3827;49.928;8.548;2023-05-01T11:34:48;0.10;;;0.10;;
7571;SDS011;3827;49.928;8.548;2023-05-01T11:37:16;0.20;;;0.20;;
7571;SDS011;3827;49.928;8.548;2023-05-01T11:39:47;0.10;;;0.10;;
7571;SDS011;3827;49.928;8.548;2023-05-01T11:42:15;0.20;;;0.20;;
7571;SDS011;3827;49.928;8.548;2023-05-01T11:47:35;0.20;;;0.20;;
7571;SDS011;3827;49.928;8.548;2023-05-01T11:50:04;0.10;;;0.10;;
7571;SDS011;3827;49.928;8.548;2023-05-01T11:52:40;0.20;;;0.20;;
7571;SDS011;3827;49.928;8.548;2023-05-01T11:55:08;0.40;;;0.40;;
7571;SDS011;3827;49.928;8.548;2023-05-01T11:57:43;0.20;;;0.20;;
7571;SDS011;3827;49.928;8.548;2023-05-01T12:00:12;0.10;;;0.10;;
7571;SDS011;3827;49.928;8.548;2023-05-01T12:02:40;0.30;;;0.30;;
7571;SDS011;3827;49.928;8.548;2023-05-01T12:05:23;0.20;;;0.20;;
7571;SDS011;3827;49.928;8.548;2023-05-01T12:07:50;0.13;;;0.13;;
7571;SDS011;3827;49.928;8.548;2023-05-01T12:10:17;0.10;;;0.10;;
7571;SDS011;3827;49.928;8.548;2023-05-01T12:12:44;0.10;;;0.10;;
7571;SDS011;3827;49.928;8.548;2023-05-01T12:15:12;0.10;;;0.10;;
7571;SDS011;3827;49.928;8.548;2023-05-01T12:17:39;0.20;;;0.20;;
7571;SDS011;3827;49.928;8.548;2023-05-01T12:20:09;0.20;;;0.20;;
7571;SDS011;3827;49.928;8.548;2023-05-01T12:22:48;0.10;;;0.10;;
7571;SDS011;3827;49.928;8.548;2023-05-01T12:25:15;0.20;;;0.20;;
7571;SDS011;3827;49.928;8.548;2023-05-01T12:27:43;0.20;;;0.20;;
7571;SDS011;3827;49.928;8.548;2023-05-01T12:30:11;0.10;;;0.10;;
7571;SDS011;3827;49.928;8.548;2023-05-01T12:32:38;0.10;;;0.10;;
7571;SDS011;3827;49.928;8.548;2023-05-01T12:35:12;0.10;;;0.10;;
7571;SDS011;3827;49.928;8.548;2023-05-01T12:37:40;0.10;;;0.10;;
7571;SDS011;3827;49.928;8.548;2023-05-01T12:40:14;0.35;;;0.20;;
7571;SDS011;3827;49.928;8.548;2023-05-01T12:42:43;0.20;;;0.20;;
7571;SDS011;3827;49.928;8.548;2023-05-01T12:45:21;0.10;;;0.10;;
7571;SDS011;3827;49.928;8.548;2023-05-01T12:47:50;0.10;;;0.10;;
7571;SDS011;3827;49.928;8.548;2023-05-01T12:50:17;0.20;;;0.20;;
7571;SDS011;3827;49.928;8.548;2023-05-01T12:52:46;0.20;;;0.20;;
7571;SDS011;3827;49.928;8.548;2023-05-01T12:55:15;0.20;;;0.20;;
7571;SDS011;3827;49.928;8.548;2023-05-01T12:57:51;0.20;;;0.20;;
7571;SDS011;3827;49.928;8.548;2023-05-01T13:00:23;0.20;;;0.20;;
7571;SDS011;3827;49.928;8.548;2023-05-01T13:02:49;0.10;;;0.10;;
7571;SDS011;3827;49.928;8.548;2023-05-01T13:05:19;0.20;;;0.20;;
7571;SDS011;3827;49.928;8.548;2023-05-01T13:07:47;0.10;;;0.10;;
7571;SDS011;3827;49.928;8.548;2023-05-01T13:10:16;0.10;;;0.10;;
7571;SDS011;3827;49.928;8.548;2023-05-01T13:12:55;0.30;;;0.30;;
7571;SDS011;3827;49.928;8.548;2023-05-01T13:15:22;0.20;;;0.20;;
7571;SDS011;3827;49.928;8.548;2023-05-01T13:17:51;0.10;;;0.10;;
7571;SDS011;3827;49.928;8.548;2023-05-01T13:20:24;0.20;;;0.20;;
7571;SDS011;3827;49.928;8.548;2023-05-01T13:22:55;0.17;;;0.17;;
7571;SDS011;3827;49.928;8.548;2023-05-01T13:25:24;0.20;;;0.20;;
7571;SDS011;3827;49.928;8.548;2023-05-01T13:27:52;0.40;;;0.30;;
7571;SDS011;3827;49.928;8.548;2023-05-01T13:30:29;0.20;;;0.20;;
7571;SDS011;3827;49.928;8.548;2023-05-01T13:32:57;0.30;;;0.30;;
7571;SDS011;3827;49.928;8.548;2023-05-01T13:35:27;0.28;;;0.20;;
7571;SDS011;3827;49.928;8.548;2023-05-01T13:37:53;0.28;;;0.20;;
7571;SDS011;3827;49.928;8.548;2023-05-01T13:40:20;0.20;;;0.20;;
7571;SDS011;3827;49.928;8.548;2023-05-01T13:42:51;0.10;;;0.10;;
7571;SDS011;3827;49.928;8.548;2023-05-01T13:45:18;0.20;;;0.20;;
7571;SDS011;3827;49.928;8.548;2023-05-01T13:47:46;0.10;;;0.10;;
7571;SDS011;3827;49.928;8.548;2023-05-01T13:50:15;0.20;;;0.20;;
7571;SDS011;3827;49.928;8.548;2023-05-01T13:52:43;0.10;;;0.10;;
7571;SDS011;3827;49.928;8.548;2023-05-01T13:55:10;0.20;;;0.20;;
7571;SDS011;3827;49.928;8.548;2023-05-01T13:57:39;0.30;;;0.30;;
7571;SDS011;3827;49.928;8.548;2023-05-01T14:00:07;0.15;;;0.15;;
7571;SDS011;3827;49.928;8.548;2023-05-01T14:02:42;0.10;;;0.10;;
7571;SDS011;3827;49.928;8.548;2023-05-01T14:05:11;0.10;;;0.10;;
7571;SDS011;3827;49.928;8.548;2023-05-01T14:07:39;0.20;;;0.20;;
7571;SDS011;3827;49.928;8.548;2023-05-01T14:10:11;0.10;;;0.10;;
7571;SDS011;3827;49.928;8.548;2023-05-01T14:12:39;0.10;;;0.10;;
7571;SDS011;3827;49.928;8.548;2023-05-01T14:15:07;0.13;;;0.13;;
7571;SDS011;3827;49.928;8.548;2023-05-01T14:17:36;0.20;;;0.20;;
7571;SDS011;3827;49.928;8.548;2023-05-01T14:20:04;0.13;;;0.13;;
7571;SDS011;3827;49.928;8.548;2023-05-01T14:22:33;0.20;;;0.20;;
7571;SDS011;3827;49.928;8.548;2023-05-01T14:25:07;0.10;;;0.10;;
7571;SDS011;3827;49.928;8.548;2023-05-01T14:27:48;0.10;;;0.10;;
7571;SDS011;3827;49.928;8.548;2023-05-01T14:30:17;0.10;;;0.10;;
7571;SDS011;3827;49.928;8.548;2023-05-01T14:32:51;0.10;;;0.10;;
7571;SDS011;3827;49.928;8.548;2023-05-01T14:35:18;0.20;;;0.20;;
7571;SDS011;3827;49.928;8.548;2023-05-01T14:37:46;0.30;;;0.20;;
7571;SDS011;3827;49.928;8.548;2023-05-01T14:40:13;0.10;;;0.10;;
7571;SDS011;3827;49.928;8.548;2023-05-01T14:42:40;0.20;;;0.20;;
7571;SDS011;3827;49.928;8.548;2023-05-01T14:45:10;0.10;;;0.10;;
7571;SDS011;3827;49.928;8.548;2023-05-01T14:47:39;0.20;;;0.20;;
7571;SDS011;3827;49.928;8.548;2023-05-01T14:50:09;0.10;;;0.10;;
7571;SDS011;3827;49.928;8.548;2023-05-01T14:52:39;0.10;;;0.10;;
7571;SDS011;3827;49.928;8.548;2023-05-01T14:55:06;0.10;;;0.10;;
7571;SDS011;3827;49.928;8.548;2023-05-01T14:57:33;0.10;;;0.10;;
7571;SDS011;3827;49.928;8.548;2023-05-01T15:00:00;0.10;;;0.10;;
7571;SDS011;3827;49.928;8.548;2023-05-01T15:02:29;0.13;;;0.13;;
7571;SDS011;3827;49.928;8.548;2023-05-01T15:04:56;0.13;;;0.13;;
7571;SDS011;3827;49.928;8.548;2023-05-01T15:07:23;0.10;;;0.10;;
7571;SDS011;3827;49.928;8.548;2023-05-01T15:09:50;0.20;;;0.20;;
7571;SDS011;3827;49.928;8.548;2023-05-01T15:12:17;0.10;;;0.10;;
7571;SDS011;3827;49.928;8.548;2023-05-01T15:14:44;0.20;;;0.20;;
7571;SDS011;3827;49.928;8.548;2023-05-01T15:17:11;0.20;;;0.17;;
7571;SDS011;3827;49.928;8.548;2023-05-01T15:19:39;0.35;;;0.30;;
7571;SDS011;3827;49.928;8.548;2023-05-01T15:22:06;0.10;;;0.10;;
7571;SDS011;3827;49.928;8.548;2023-05-01T15:24:33;0.15;;;0.10;;
7571;SDS011;3827;49.928;8.548;2023-05-01T15:26:59;0.20;;;0.20;;
7571;SDS011;3827;49.928;8.548;2023-05-01T15:29:27;0.20;;;0.20;;
7571;SDS011;3827;49.928;8.548;2023-05-01T15:31:54;0.10;;;0.10;;
7571;SDS011;3827;49.928;8.548;2023-05-01T15:36:50;0.10;;;0.10;;
7571;SDS011;3827;49.928;8.548;2023-05-01T15:39:17;0.10;;;0.10;;
7571;SDS011;3827;49.928;8.548;2023-05-01T15:41:44;0.30;;;0.20;;
7571;SDS011;3827;49.928;8.548;2023-05-01T15:44:11;0.10;;;0.10;;
7571;SDS011;3827;49.928;8.548;2023-05-01T15:46:39;0.20;;;0.20;;